createdAt,value
2019-01-06T00:00:52.906Z,1.10
2019-01-06T00:03:41.152Z,1.20
2019-01-06T00:06:28.372Z,1.10
2019-01-06T00:09:15.614Z,1.10
2019-01-06T00:12:03.091Z,1.20
2019-01-06T00:14:45.388Z,1.20
2019-01-06T00:17:48.740Z,1.10
2019-01-06T00:20:35.478Z,1.10
2019-01-06T00:23:23.680Z,1.10
2019-01-06T00:26:11.909Z,1.10
2019-01-06T00:29:09.436Z,1.10
2019-01-06T00:32:05.585Z,1.10
2019-01-06T00:34:56.799Z,1.20
2019-01-06T00:37:43.965Z,1.20
2019-01-06T00:40:38.217Z,1.20
2019-01-06T00:43:38.515Z,1.20
2019-01-06T00:46:25.397Z,1.20
2019-01-06T00:49:25.464Z,1.30
2019-01-06T00:52:22.413Z,1.30
2019-01-06T00:55:09.441Z,1.20
2019-01-06T00:57:56.566Z,1.30
2019-01-06T01:00:47.633Z,1.30
2019-01-06T01:03:32.336Z,1.30
2019-01-06T01:06:38.291Z,1.30
2019-01-06T01:09:48.885Z,1.30
2019-01-06T01:12:38.926Z,1.30
2019-01-06T01:15:21.349Z,1.30
2019-01-06T01:18:08.452Z,1.30
2019-01-06T01:20:48.213Z,1.40
2019-01-06T01:23:42.479Z,1.50
2019-01-06T01:26:36.745Z,1.50
2019-01-06T01:29:23.880Z,1.50
2019-01-06T01:32:09.088Z,1.50
2019-01-06T01:34:56.001Z,1.50
2019-01-06T01:37:59.317Z,1.60
2019-01-06T01:40:56.335Z,1.50
2019-01-06T01:43:43.355Z,1.50
2019-01-06T01:46:50.009Z,1.60
2019-01-06T01:49:41.257Z,1.60
2019-01-06T01:52:28.173Z,1.50
2019-01-06T01:55:15.283Z,1.60
2019-01-06T01:58:12.848Z,1.60
2019-01-06T02:00:59.964Z,1.60
2019-01-06T02:03:47.289Z,1.60
2019-01-06T02:06:38.509Z,1.60
2019-01-06T02:09:26.576Z,1.60
2019-01-06T02:12:12.211Z,1.50
2019-01-06T02:15:03.620Z,1.60
2019-01-06T02:17:51.832Z,1.60
2019-01-06T02:20:38.759Z,1.60
2019-01-06T02:23:46.062Z,1.70
2019-01-06T02:26:43.101Z,1.60
2019-01-06T02:29:34.368Z,1.70
2019-01-06T02:32:21.079Z,1.70
2019-01-06T02:35:15.403Z,1.70
2019-01-06T02:38:00.532Z,1.70
2019-01-06T02:40:47.403Z,1.70
2019-01-06T02:43:38.738Z,1.70
2019-01-06T02:46:25.346Z,1.80
2019-01-06T02:49:12.433Z,1.80
2019-01-06T02:52:00.708Z,1.80
2019-01-06T02:54:47.707Z,1.80
2019-01-06T02:57:32.492Z,1.80
2019-01-06T03:00:32.896Z,1.80
2019-01-06T03:03:19.966Z,1.80
2019-01-06T03:06:23.528Z,1.80
2019-01-06T03:09:10.633Z,1.80
2019-01-06T03:12:08.027Z,1.80
2019-01-06T03:15:02.332Z,1.80
2019-01-06T03:17:53.312Z,1.70
2019-01-06T03:20:41.564Z,1.80
2019-01-06T03:23:28.780Z,1.70
2019-01-06T03:26:19.792Z,1.70
2019-01-06T03:29:06.583Z,1.70
2019-01-06T03:32:13.228Z,1.70
2019-01-06T03:35:00.376Z,1.70
2019-01-06T03:37:41.820Z,1.70
2019-01-06T03:40:42.450Z,1.70
2019-01-06T03:43:45.316Z,1.70
2019-01-06T03:46:39.573Z,1.70
2019-01-06T03:49:39.826Z,1.60
2019-01-06T03:52:26.736Z,1.60
2019-01-06T03:55:33.377Z,1.60
2019-01-06T03:58:30.960Z,1.60
2019-01-06T04:01:19.177Z,1.60
2019-01-06T04:04:25.949Z,1.60
2019-01-06T04:07:12.845Z,1.60
2019-01-06T04:09:59.629Z,1.60
2019-01-06T04:12:50.614Z,1.60
2019-01-06T04:15:54.177Z,1.60
2019-01-06T04:18:29.586Z,1.70
2019-01-06T04:21:16.124Z,1.70
2019-01-06T04:24:16.653Z,1.70
2019-01-06T04:27:03.805Z,1.70
2019-01-06T04:29:49.937Z,1.70
2019-01-06T04:32:36.802Z,1.70
2019-01-06T04:35:39.437Z,1.80
2019-01-06T04:38:46.034Z,1.70
2019-01-06T04:41:33.061Z,1.70
2019-01-06T04:44:27.105Z,1.70
2019-01-06T04:47:15.693Z,1.60
2019-01-06T04:50:02.825Z,1.60
2019-01-06T04:53:00.131Z,1.60
2019-01-06T04:55:51.433Z,1.60
2019-01-06T04:58:30.799Z,1.60
2019-01-06T05:01:28.148Z,1.60
2019-01-06T05:04:31.682Z,1.60
2019-01-06T05:07:14.701Z,1.50
2019-01-06T05:10:07.348Z,1.50
2019-01-06T05:12:58.622Z,1.50
2019-01-06T05:15:46.859Z,1.50
2019-01-06T05:18:42.605Z,1.50
2019-01-06T05:21:30.841Z,1.50
2019-01-06T05:24:25.043Z,1.50
2019-01-06T05:27:12.239Z,1.50
2019-01-06T05:30:00.433Z,1.60
2019-01-06T05:32:46.107Z,1.60
2019-01-06T05:35:40.159Z,1.60
2019-01-06T05:38:43.796Z,1.60
2019-01-06T05:41:38.086Z,1.60
2019-01-06T05:44:29.067Z,1.60
2019-01-06T05:47:17.289Z,1.60
2019-01-06T05:50:20.583Z,1.60
2019-01-06T05:53:08.831Z,1.60
2019-01-06T05:56:05.973Z,1.60
2019-01-06T05:58:57.016Z,1.60
2019-01-06T06:01:37.902Z,1.60
2019-01-06T06:04:25.143Z,1.60
2019-01-06T06:07:29.925Z,1.50
2019-01-06T06:10:21.188Z,1.60
2019-01-06T06:13:07.971Z,1.60
2019-01-06T06:16:02.238Z,1.60
2019-01-06T06:18:48.358Z,1.60
2019-01-06T06:21:35.297Z,1.70
2019-01-06T06:24:42.024Z,1.60
2019-01-06T06:27:27.660Z,1.60
2019-01-06T06:30:44.208Z,1.70
2019-01-06T06:33:32.450Z,1.70
2019-01-06T06:36:19.196Z,1.70
2019-01-06T06:39:08.596Z,1.70
2019-01-06T06:41:52.129Z,1.70
2019-01-06T06:44:52.662Z,1.80
2019-01-06T06:47:49.992Z,1.70
2019-01-06T06:50:41.256Z,1.60
2019-01-06T06:53:35.524Z,1.60
2019-01-06T06:56:22.304Z,1.50
2019-01-06T06:59:02.880Z,1.50
2019-01-06T07:02:28.046Z,1.50
2019-01-06T07:05:15.105Z,1.50
2019-01-06T07:08:15.396Z,1.40
2019-01-06T07:11:00.118Z,1.40
2019-01-06T07:13:50.899Z,1.40
2019-01-06T07:17:21.394Z,1.40
2019-01-06T07:20:05.277Z,1.40
2019-01-06T07:23:05.628Z,1.40
2019-01-06T07:25:59.836Z,1.40
2019-01-06T07:28:53.996Z,1.40
2019-01-06T07:31:44.979Z,1.40
2019-01-06T07:34:39.329Z,1.40
2019-01-06T07:37:39.620Z,1.40
2019-01-06T07:40:26.901Z,1.40
2019-01-06T07:43:13.961Z,1.40
2019-01-06T07:46:20.613Z,1.40
2019-01-06T07:49:01.826Z,1.40
2019-01-06T07:51:50.011Z,1.40
2019-01-06T07:54:38.247Z,1.40
2019-01-06T07:57:26.457Z,1.40
2019-01-06T08:00:14.946Z,1.40
2019-01-06T08:02:55.542Z,1.50
2019-01-06T08:05:43.765Z,1.50
2019-01-06T08:08:37.835Z,1.50
2019-01-06T08:11:29.083Z,1.50
2019-01-06T08:14:16.111Z,1.50
2019-01-06T08:17:16.785Z,1.50
2019-01-06T08:20:04.090Z,1.60
2019-01-06T08:22:51.285Z,1.60
2019-01-06T08:25:48.979Z,1.60
2019-01-06T08:28:43.277Z,1.60
2019-01-06T08:31:37.141Z,1.70
2019-01-06T08:34:24.113Z,1.70
2019-01-06T08:37:12.371Z,1.70
2019-01-06T08:40:09.559Z,1.80
2019-01-06T08:43:00.872Z,1.80
2019-01-06T08:45:57.398Z,1.80
2019-01-06T08:48:45.759Z,1.90
2019-01-06T08:51:33.978Z,1.90
2019-01-06T08:54:20.905Z,1.90
2019-01-06T08:57:27.600Z,2.00
2019-01-06T09:00:21.393Z,2.00
2019-01-06T09:03:08.573Z,2.00
2019-01-06T09:05:55.769Z,2.00
2019-01-06T09:08:44.609Z,2.10
2019-01-06T09:11:47.539Z,2.10
2019-01-06T09:14:31.815Z,2.20
2019-01-06T09:17:18.830Z,2.40
2019-01-06T09:20:10.188Z,2.50
2019-01-06T09:23:04.175Z,2.60
2019-01-06T09:25:54.017Z,2.80
2019-01-06T09:28:41.029Z,2.80
2019-01-06T09:31:29.356Z,2.80
2019-01-06T09:34:14.738Z,2.80
2019-01-06T09:37:09.026Z,2.90
2019-01-06T09:39:55.808Z,2.90
2019-01-06T09:42:43.110Z,2.80
2019-01-06T09:45:26.423Z,2.80
2019-01-06T09:48:13.678Z,2.70
2019-01-06T09:51:00.792Z,2.50
2019-01-06T09:53:45.712Z,2.50
2019-01-06T09:56:32.700Z,2.50
2019-01-06T09:59:23.945Z,2.50
2019-01-06T10:02:21.527Z,2.50
2019-01-06T10:05:15.868Z,2.50
2019-01-06T10:08:13.392Z,2.50
2019-01-06T10:11:05.679Z,2.60
2019-01-06T10:13:52.888Z,2.60
2019-01-06T10:16:39.985Z,2.70
2019-01-06T10:19:40.516Z,2.60
2019-01-06T10:22:27.456Z,2.60
2019-01-06T10:25:14.539Z,2.60
2019-01-06T10:28:02.756Z,2.50
2019-01-06T10:30:52.736Z,2.60
2019-01-06T10:33:39.652Z,2.50
2019-01-06T10:36:45.279Z,2.50
2019-01-06T10:39:34.923Z,2.60
2019-01-06T10:42:18.397Z,2.60
2019-01-06T10:45:18.993Z,2.70
2019-01-06T10:48:10.271Z,2.70
2019-01-06T10:51:07.388Z,2.70
2019-01-06T10:54:01.537Z,2.70
2019-01-06T10:57:01.929Z,2.80
2019-01-06T10:59:48.975Z,2.80
2019-01-06T11:02:36.115Z,2.90
2019-01-06T11:05:25.083Z,2.80
2019-01-06T11:08:25.631Z,2.90
2019-01-06T11:11:19.657Z,2.90
2019-01-06T11:14:07.897Z,2.90
2019-01-06T11:16:56.545Z,3.00
2019-01-06T11:19:56.879Z,2.90
2019-01-06T11:23:00.307Z,2.90
2019-01-06T11:26:04.029Z,2.80
2019-01-06T11:28:52.275Z,2.70
2019-01-06T11:31:43.295Z,2.70
2019-01-06T11:34:34.368Z,2.70
2019-01-06T11:37:21.052Z,2.80
2019-01-06T11:40:15.345Z,2.80
2019-01-06T11:43:01.845Z,2.90
2019-01-06T11:45:51.125Z,2.80
2019-01-06T11:48:42.639Z,2.80
2019-01-06T11:51:29.731Z,2.90
2019-01-06T11:54:16.879Z,2.80
2019-01-06T11:57:08.125Z,2.80
2019-01-06T12:00:11.531Z,2.80
2019-01-06T12:02:59.748Z,2.80
2019-01-06T12:06:03.111Z,2.90
2019-01-06T12:09:06.547Z,2.90
2019-01-06T12:12:04.177Z,2.90
2019-01-06T12:15:04.554Z,2.90
2019-01-06T12:18:04.699Z,2.90
2019-01-06T12:20:56.110Z,3.10
2019-01-06T12:23:44.417Z,3.00
2019-01-06T12:26:31.625Z,3.00
2019-01-06T12:29:38.151Z,3.00
2019-01-06T12:32:23.389Z,3.10
2019-01-06T12:35:21.027Z,3.20
2019-01-06T12:38:08.262Z,3.20
2019-01-06T12:40:55.432Z,3.20
2019-01-06T12:43:46.735Z,3.10
2019-01-06T12:46:33.731Z,3.10
2019-01-06T12:49:22.065Z,3.00
2019-01-06T12:52:08.770Z,3.10
2019-01-06T12:55:01.012Z,3.10
2019-01-06T12:58:04.431Z,3.10
2019-01-06T13:00:58.840Z,3.10
2019-01-06T13:06:44.022Z,2.90
2019-01-06T13:09:30.122Z,2.80
2019-01-06T13:12:17.289Z,2.70
2019-01-06T13:15:11.824Z,2.70
2019-01-06T13:18:02.945Z,2.60
2019-01-06T13:20:50.380Z,2.60
2019-01-06T13:23:41.480Z,2.50
2019-01-06T13:26:25.346Z,2.40
2019-01-06T13:29:32.068Z,2.40
2019-01-06T13:32:19.210Z,2.40
2019-01-06T13:35:13.596Z,2.40
2019-01-06T13:38:05.273Z,2.50
2019-01-06T13:41:02.387Z,2.50
2019-01-06T13:43:41.654Z,2.50
2019-01-06T13:46:28.748Z,2.40
2019-01-06T13:49:17.035Z,2.40
2019-01-06T13:52:31.958Z,2.40
2019-01-06T13:55:18.886Z,2.50
2019-01-06T13:58:10.546Z,2.60
2019-01-06T14:00:57.689Z,2.60
2019-01-06T14:03:44.638Z,2.60
2019-01-06T14:06:48.081Z,2.60
2019-01-06T14:09:35.364Z,2.60
2019-01-06T14:12:15.522Z,2.60
2019-01-06T14:15:06.667Z,2.50
2019-01-06T14:17:53.715Z,2.50
2019-01-06T14:20:45.685Z,2.50
2019-01-06T14:23:52.218Z,2.40
2019-01-06T14:26:39.474Z,2.40
2019-01-06T14:29:27.951Z,2.40
2019-01-06T14:32:22.403Z,2.40
2019-01-06T14:35:29.185Z,2.30
2019-01-06T14:38:16.359Z,2.30
2019-01-06T14:41:07.597Z,2.20
2019-01-06T14:43:55.732Z,2.20
2019-01-06T14:46:49.827Z,2.20
2019-01-06T14:49:38.601Z,2.20
2019-01-06T14:52:26.885Z,2.20
2019-01-06T14:55:21.351Z,2.20
2019-01-06T14:58:16.145Z,2.10
2019-01-06T15:01:03.213Z,2.10
2019-01-06T15:03:50.514Z,2.20
2019-01-06T15:06:44.921Z,2.20
2019-01-06T15:09:31.935Z,2.20
2019-01-06T15:12:41.051Z,2.10
2019-01-06T15:15:35.249Z,2.20
2019-01-06T15:18:30.627Z,2.20
2019-01-06T15:21:15.719Z,2.10
2019-01-06T15:24:16.060Z,2.10
2019-01-06T15:27:17.195Z,2.10
2019-01-06T15:30:20.626Z,2.10
2019-01-06T15:33:08.487Z,2.10
2019-01-06T15:35:50.928Z,2.10
2019-01-06T15:38:34.389Z,2.00
2019-01-06T15:41:25.436Z,2.10
2019-01-06T15:44:12.068Z,2.00
2019-01-06T15:47:06.993Z,2.00
2019-01-06T15:50:07.569Z,2.10
2019-01-06T15:52:56.253Z,2.00
2019-01-06T15:55:57.422Z,2.10
2019-01-06T15:58:48.883Z,2.00
2019-01-06T16:01:43.279Z,2.00
2019-01-06T16:04:30.179Z,2.00
2019-01-06T16:07:17.424Z,2.00
2019-01-06T16:10:04.606Z,2.10
2019-01-06T16:13:01.705Z,2.10
2019-01-06T16:15:49.761Z,2.10
2019-01-06T16:18:53.114Z,2.20
2019-01-06T16:21:40.870Z,2.10
2019-01-06T16:24:24.982Z,2.10
2019-01-06T16:27:17.814Z,2.10
2019-01-06T16:30:21.302Z,2.00
2019-01-06T16:33:21.884Z,2.00
2019-01-06T16:36:07.552Z,2.00
2019-01-06T16:39:11.051Z,2.00
2019-01-06T16:41:59.362Z,2.10
2019-01-06T16:44:55.611Z,2.00
2019-01-06T16:47:49.942Z,2.10
2019-01-06T16:50:36.729Z,2.00
2019-01-06T16:53:23.940Z,2.00
2019-01-06T16:56:11.379Z,2.00
2019-01-06T16:58:59.986Z,2.00
2019-01-06T17:01:49.402Z,1.90
2019-01-06T17:04:52.074Z,2.00
2019-01-06T17:07:43.439Z,2.00
2019-01-06T17:10:46.716Z,2.00
2019-01-06T17:13:42.000Z,2.00
2019-01-06T17:16:29.424Z,2.00
2019-01-06T17:19:20.558Z,2.00
2019-01-06T17:22:07.567Z,2.00
2019-01-06T17:24:55.178Z,2.00
2019-01-06T17:27:42.137Z,2.00
2019-01-06T17:30:35.949Z,2.00
2019-01-06T17:33:27.106Z,2.00
2019-01-06T17:36:23.166Z,2.00
2019-01-06T17:39:11.438Z,1.90
2019-01-06T17:42:08.982Z,2.00
2019-01-06T17:45:11.686Z,2.00
2019-01-06T17:48:07.004Z,2.00
2019-01-06T17:51:07.266Z,2.00
2019-01-06T17:53:53.517Z,2.00
2019-01-06T17:56:40.859Z,2.00
2019-01-06T17:59:28.817Z,2.00
2019-01-06T18:02:16.339Z,2.00
2019-01-06T18:05:07.796Z,2.00
2019-01-06T18:08:11.905Z,2.00
2019-01-06T18:11:06.799Z,2.00
2019-01-06T18:13:53.863Z,2.00
2019-01-06T18:16:51.509Z,2.00
2019-01-06T18:19:40.891Z,2.00
2019-01-06T18:22:44.339Z,1.90
2019-01-06T18:25:32.650Z,1.90
2019-01-06T18:28:21.159Z,1.80
2019-01-06T18:31:10.414Z,1.80
2019-01-06T18:34:09.333Z,1.80
2019-01-06T18:36:57.699Z,1.80
2019-01-06T18:39:49.040Z,1.80
2019-01-06T18:42:37.467Z,1.80
2019-01-06T18:45:45.141Z,1.80
2019-01-06T18:48:32.523Z,1.80
2019-01-06T18:51:27.167Z,1.80
2019-01-06T18:54:07.090Z,1.80
2019-01-06T18:56:54.521Z,1.80
2019-01-06T18:59:42.911Z,1.70
2019-01-06T19:02:31.907Z,1.60
2019-01-06T19:05:19.377Z,1.60
2019-01-06T19:08:06.373Z,1.50
2019-01-06T19:10:58.127Z,1.50
2019-01-06T19:13:52.504Z,1.50
2019-01-06T19:16:53.326Z,1.50
2019-01-06T19:19:40.423Z,1.40
2019-01-06T19:22:37.826Z,1.40
2019-01-06T19:25:24.995Z,1.40
2019-01-06T19:28:19.183Z,1.40
2019-01-06T19:31:19.986Z,1.40
2019-01-06T19:34:04.667Z,1.30
2019-01-06T19:37:11.316Z,1.30
2019-01-06T19:39:58.862Z,1.20
2019-01-06T19:42:43.573Z,1.20
2019-01-06T19:45:30.805Z,1.20
2019-01-06T19:48:20.546Z,1.20
2019-01-06T19:51:08.048Z,1.10
2019-01-06T19:54:05.037Z,1.20
2019-01-06T19:56:45.126Z,1.20
2019-01-06T19:59:37.375Z,1.20
2019-01-06T20:02:29.483Z,1.20
2019-01-06T20:05:23.005Z,1.20
2019-01-06T20:08:24.316Z,1.10
2019-01-06T20:11:22.283Z,1.10
2019-01-06T20:14:14.458Z,1.20
2019-01-06T20:16:57.220Z,1.20
2019-01-06T20:19:46.074Z,1.20
2019-01-06T20:22:41.593Z,1.20
2019-01-06T20:25:36.697Z,1.20
2019-01-06T20:28:59.510Z,1.20
2019-01-06T20:31:43.146Z,1.20
2019-01-06T20:34:30.750Z,1.20
2019-01-06T20:37:25.693Z,1.20
2019-01-06T20:40:13.697Z,1.10
2019-01-06T20:43:06.339Z,1.10
2019-01-06T20:45:53.903Z,1.20
2019-01-06T20:48:41.744Z,1.20
2019-01-06T20:51:29.327Z,1.20
2019-01-06T20:54:18.708Z,1.20
2019-01-06T20:57:06.096Z,1.20
2019-01-06T20:59:58.765Z,1.10
2019-01-06T21:03:02.335Z,1.10
2019-01-06T21:05:53.512Z,1.10
2019-01-06T21:08:49.721Z,1.10
2019-01-06T21:11:37.159Z,1.20
2019-01-06T21:14:29.238Z,1.10
2019-01-06T21:17:16.166Z,1.20
2019-01-06T21:20:24.025Z,1.20
2019-01-06T21:23:18.434Z,1.10
2019-01-06T21:26:16.971Z,1.10
2019-01-06T21:29:09.651Z,1.00
2019-01-06T21:32:02.821Z,1.10
2019-01-06T21:34:57.170Z,1.10
2019-01-06T21:37:51.366Z,1.20
2019-01-06T21:40:52.627Z,1.20
2019-01-06T21:43:40.340Z,1.20
2019-01-06T21:46:41.539Z,1.30
2019-01-06T21:49:28.585Z,1.30
2019-01-06T21:52:17.395Z,1.30
2019-01-06T21:55:04.585Z,1.30
2019-01-06T21:58:01.934Z,1.20
2019-01-06T22:01:00.299Z,1.20
2019-01-06T22:04:10.788Z,1.20
2019-01-06T22:07:14.187Z,1.20
2019-01-06T22:10:15.051Z,1.30
2019-01-06T22:13:15.697Z,1.20
2019-01-06T22:16:07.005Z,1.30
2019-01-06T22:19:01.118Z,1.30
2019-01-06T22:21:52.493Z,1.30
2019-01-06T22:24:49.489Z,1.30
2019-01-06T22:27:48.066Z,1.30
2019-01-06T22:30:35.165Z,1.20
2019-01-06T22:33:35.609Z,1.30
2019-01-06T22:36:22.849Z,1.30
2019-01-06T22:39:20.202Z,1.20
2019-01-06T22:42:27.165Z,1.10
2019-01-06T22:45:32.913Z,1.10
2019-01-06T22:48:21.152Z,1.10
2019-01-06T22:51:15.213Z,1.10
2019-01-06T22:54:03.713Z,1.10
2019-01-06T22:56:50.885Z,1.20
2019-01-06T22:59:37.985Z,1.20
2019-01-06T23:02:25.122Z,1.20
2019-01-06T23:05:13.330Z,1.20
2019-01-06T23:08:00.626Z,1.20
2019-01-06T23:10:47.711Z,1.30
2019-01-06T23:13:32.821Z,1.40
2019-01-06T23:16:19.949Z,1.40
2019-01-06T23:19:07.079Z,1.40
2019-01-06T23:22:07.569Z,1.40
2019-01-06T23:25:01.827Z,1.40
2019-01-06T23:27:50.099Z,1.50
2019-01-06T23:30:37.914Z,1.50
2019-01-06T23:33:28.892Z,1.50
2019-01-06T23:36:17.259Z,1.50
2019-01-06T23:39:24.017Z,1.40
2019-01-06T23:42:15.061Z,1.40
2019-01-06T23:45:01.880Z,1.50
2019-01-06T23:47:48.855Z,1.60
2019-01-06T23:50:35.934Z,1.60
2019-01-06T23:53:22.998Z,1.60
2019-01-06T23:56:14.592Z,1.60
2019-01-06T23:59:06.090Z,1.70
